Dillon, MT

11:13 AM MST on December 07, 2016 (GMT -0700)
Dillon | | Change Station

Elev 5207 ft 45.16 °N, 112.68 °W | Updated 10 seconds ago

Clear
Clear
5.9 °F
Feels Like 6 °F
N
0.4
Wind Variable Wind from North
Gusts 2.5 mph

Today
High -- | Low -- °F
--% Chance of Precip.
Yesterday
High -- | Low -- °F
Precip. -- in
Pressure 30.58 in
Visibility 10.0 miles
Clouds Clear
Windchill 6 °F
Dew Point -26 °F
Humidity 21%
Rainfall 0.00 in
Snow Depth Not available.
7:56 AM 4:48 PM
First Quarter, 54% visible
METAR KDLN 071753Z AUTO 07005KT 10SM CLR M15/M19 A3026 RMK AO2 SLP353 T11501194 11150 21189 51015
Pressure 30.58 in
Visibility 10.0 miles
Clouds Clear
Windchill 6 °F
Dew Point -26 °F
Humidity 21%
Rainfall 0.00 in
Snow Depth Not available.
7:56 AM 4:48 PM
First Quarter, 54% visible
METAR KDLN 071753Z AUTO 07005KT 10SM CLR M15/M19 A3026 RMK AO2 SLP353 T11501194 11150 21189 51015

10-Day Weather Forecast

Almanac

Astronomy

Dec. 07, 2016 Rise Set
Actual Time
Civil Twilight
Nautical Twilight
Astronomical Twilight
Moon
Length of Visible Light
Length of Day
Tomorrow will be .
, % of the Moon is Illuminated

Today's Extremes

State Highs State Lows

Community

WunderPhotos

Upload Photos

1,956,157 photos uploaded!

WunderBlog® & News

Nearby

Air Quality

  Air Quality AQ Index Pollutant
Not available.

Snow Depth

Station Depth Elevation

Earthquake Activity

City Distance Mag. Time & Date
Minimum magnitude displayed is 2.5.

Coastal Water Temperatures

Place Temperature

Stations

Nearby Weather Stations

Station Location Temp. Windchill Dew Point Humidity Wind Precip. Elev Updated Type
                   

Watches & Warnings

There are currently no watches in effect.